createdAt,value
2018-05-13T00:00:12.520Z,17.10
2018-05-13T00:02:40.186Z,17.20
2018-05-13T00:05:07.761Z,17.30
2018-05-13T00:07:36.711Z,17.50
2018-05-13T00:10:04.273Z,17.40
2018-05-13T00:12:31.834Z,17.60
2018-05-13T00:15:00.703Z,17.60
2018-05-13T00:17:28.645Z,17.60
2018-05-13T00:19:56.138Z,17.50
2018-05-13T00:22:23.681Z,17.40
2018-05-13T00:24:51.216Z,17.10
2018-05-13T00:27:18.896Z,17.10
2018-05-13T00:29:46.457Z,17.10
2018-05-13T00:32:14.637Z,17.00
2018-05-13T00:34:42.509Z,17.10
2018-05-13T00:37:10.813Z,17.10
2018-05-13T00:39:38.415Z,17.00
2018-05-13T00:42:06.801Z,17.00
2018-05-13T00:44:34.761Z,16.90
2018-05-13T00:47:03.397Z,17.00
2018-05-13T00:49:30.954Z,17.00
2018-05-13T00:51:58.443Z,17.00
2018-05-13T00:54:37.746Z,16.90
2018-05-13T00:57:05.293Z,16.80
2018-05-13T00:59:32.804Z,16.90
2018-05-13T01:02:00.338Z,17.00
2018-05-13T01:04:27.988Z,16.90
2018-05-13T01:06:55.487Z,17.00
2018-05-13T01:09:23.781Z,17.00
2018-05-13T01:11:51.950Z,17.00
2018-05-13T01:14:19.494Z,17.10
2018-05-13T01:16:48.610Z,17.00
2018-05-13T01:19:16.128Z,16.90
2018-05-13T01:21:43.661Z,16.90
2018-05-13T01:24:12.602Z,16.90
2018-05-13T01:26:41.081Z,16.80
2018-05-13T01:29:08.607Z,16.80
2018-05-13T01:31:36.164Z,16.80
2018-05-13T01:34:03.671Z,16.80
2018-05-13T01:36:31.204Z,16.80
2018-05-13T01:38:59.513Z,16.80
2018-05-13T01:41:26.974Z,16.80
2018-05-13T01:43:54.453Z,16.70
2018-05-13T01:46:21.929Z,16.80
2018-05-13T01:48:49.429Z,16.70
2018-05-13T01:51:17.640Z,16.60
2018-05-13T01:53:45.127Z,16.60
2018-05-13T01:56:12.579Z,16.50
2018-05-13T01:58:40.092Z,16.50
2018-05-13T02:01:07.586Z,16.40
2018-05-13T02:03:35.047Z,16.50
2018-05-13T02:06:02.529Z,16.40
2018-05-13T02:08:29.986Z,16.30
2018-05-13T02:10:57.470Z,16.30
2018-05-13T02:13:25.697Z,16.30
2018-05-13T02:15:53.186Z,16.30
2018-05-13T02:18:21.419Z,16.40
2018-05-13T02:20:48.878Z,16.40
2018-05-13T02:23:16.383Z,16.50
2018-05-13T02:25:44.615Z,16.40
2018-05-13T02:28:12.072Z,16.40
2018-05-13T02:30:39.554Z,16.30
2018-05-13T02:33:07.032Z,16.30
2018-05-13T02:35:35.269Z,16.20
2018-05-13T02:38:02.762Z,16.20
2018-05-13T02:40:31.042Z,16.30
2018-05-13T02:42:59.271Z,16.30
2018-05-13T02:45:26.753Z,16.30
2018-05-13T02:47:54.208Z,16.30
2018-05-13T02:50:21.691Z,16.30
2018-05-13T02:52:49.973Z,16.20
2018-05-13T02:55:18.205Z,16.30
2018-05-13T02:57:45.695Z,16.20
2018-05-13T03:00:13.165Z,16.20
2018-05-13T03:02:41.402Z,16.20
2018-05-13T03:05:08.877Z,16.20
2018-05-13T03:07:36.372Z,16.20
2018-05-13T03:10:03.842Z,16.20
2018-05-13T03:12:31.306Z,16.10
2018-05-13T03:14:58.793Z,16.00
2018-05-13T03:17:26.281Z,16.10
2018-05-13T03:19:54.511Z,16.00
2018-05-13T03:22:21.981Z,16.00
2018-05-13T03:24:49.420Z,16.00
2018-05-13T03:27:16.940Z,16.00
2018-05-13T03:29:44.422Z,15.90
2018-05-13T03:32:11.903Z,15.90
2018-05-13T03:34:39.394Z,15.90
2018-05-13T03:37:06.900Z,15.90
2018-05-13T03:39:34.369Z,15.90
2018-05-13T03:42:01.868Z,15.90
2018-05-13T03:44:29.368Z,15.80
2018-05-13T03:46:56.850Z,15.80
2018-05-13T03:49:24.337Z,15.80
2018-05-13T03:51:51.809Z,15.80
2018-05-13T03:54:20.064Z,15.70
2018-05-13T03:56:47.559Z,15.70
2018-05-13T03:59:15.044Z,15.70
2018-05-13T04:01:42.557Z,15.80
2018-05-13T04:04:09.988Z,15.80
2018-05-13T04:06:37.445Z,15.90
2018-05-13T04:12:16.662Z,15.90
2018-05-13T04:14:56.061Z,15.90
2018-05-13T04:17:24.280Z,16.00
2018-05-13T04:19:51.765Z,16.00
2018-05-13T04:22:19.245Z,16.00
2018-05-13T04:24:47.465Z,16.10
2018-05-13T04:27:14.958Z,16.10
2018-05-13T04:29:42.451Z,16.10
2018-05-13T04:32:09.954Z,16.20
2018-05-13T04:34:37.416Z,16.20
2018-05-13T04:37:04.900Z,16.20
2018-05-13T04:39:32.395Z,16.20
2018-05-13T04:41:59.936Z,16.20
2018-05-13T04:44:28.152Z,16.20
2018-05-13T04:46:55.617Z,16.20
2018-05-13T04:49:23.854Z,16.30
2018-05-13T04:51:51.310Z,16.30
2018-05-13T04:54:19.540Z,16.40
2018-05-13T04:56:47.006Z,16.40
2018-05-13T04:59:14.518Z,16.40
2018-05-13T05:01:41.975Z,16.50
2018-05-13T05:04:09.460Z,16.60
2018-05-13T05:06:36.913Z,16.60
2018-05-13T05:09:04.383Z,16.60
2018-05-13T05:11:31.845Z,16.60
2018-05-13T05:13:59.316Z,16.70
2018-05-13T05:16:26.836Z,16.70
2018-05-13T05:18:54.289Z,16.60
2018-05-13T05:21:21.770Z,16.60
2018-05-13T05:23:49.301Z,16.70
2018-05-13T05:26:16.759Z,16.70
2018-05-13T05:28:44.259Z,16.80
2018-05-13T05:31:11.733Z,16.70
2018-05-13T05:33:39.964Z,16.90
2018-05-13T05:36:07.465Z,16.90
2018-05-13T05:38:35.707Z,16.90
2018-05-13T05:41:03.168Z,16.90
2018-05-13T05:43:30.658Z,17.10
2018-05-13T05:45:58.114Z,17.00
2018-05-13T05:48:25.698Z,17.10
2018-05-13T05:50:53.105Z,17.10
2018-05-13T05:53:20.904Z,17.20
2018-05-13T05:55:48.378Z,17.20
2018-05-13T05:58:15.871Z,17.30
2018-05-13T06:00:43.331Z,17.20
2018-05-13T06:03:10.856Z,17.20
2018-05-13T06:05:38.277Z,17.20
2018-05-13T06:08:05.848Z,17.20
2018-05-13T06:10:33.360Z,17.30
2018-05-13T06:13:00.852Z,17.20
2018-05-13T06:15:28.370Z,17.20
2018-05-13T06:17:55.850Z,17.20
2018-05-13T06:20:23.377Z,17.30
2018-05-13T06:22:50.852Z,17.20
2018-05-13T06:25:18.655Z,17.10
2018-05-13T06:27:46.157Z,17.00
2018-05-13T06:30:13.681Z,17.00
2018-05-13T06:32:41.121Z,17.00
2018-05-13T06:35:08.617Z,17.10
2018-05-13T06:37:36.926Z,17.20
2018-05-13T06:40:04.410Z,17.20
2018-05-13T06:42:31.904Z,17.20
2018-05-13T06:44:59.451Z,17.20
2018-05-13T06:47:27.710Z,17.40
2018-05-13T06:49:55.205Z,17.40
2018-05-13T06:52:22.698Z,17.30
2018-05-13T06:54:50.342Z,17.50
2018-05-13T06:57:17.886Z,17.60
2018-05-13T06:59:45.312Z,17.60
2018-05-13T07:02:12.809Z,17.50
2018-05-13T07:04:40.414Z,17.50
2018-05-13T07:07:07.928Z,17.40
2018-05-13T07:09:35.389Z,17.30
2018-05-13T07:12:02.865Z,17.40
2018-05-13T07:14:30.407Z,17.30
2018-05-13T07:16:57.892Z,17.20
2018-05-13T07:19:25.406Z,17.10
2018-05-13T07:21:52.943Z,17.10
2018-05-13T07:24:21.218Z,17.00
2018-05-13T07:26:49.467Z,17.00
2018-05-13T07:29:16.959Z,17.00
2018-05-13T07:31:45.225Z,17.10
2018-05-13T07:34:13.492Z,17.10
2018-05-13T07:36:40.985Z,17.10
2018-05-13T07:39:08.462Z,17.20
2018-05-13T07:41:35.997Z,17.20
2018-05-13T07:44:04.225Z,17.00
2018-05-13T07:46:31.718Z,17.00
2018-05-13T07:49:00.046Z,17.00
2018-05-13T07:51:27.525Z,17.00
2018-05-13T07:53:55.009Z,17.10
2018-05-13T07:56:22.533Z,17.10
2018-05-13T07:58:50.002Z,16.90
2018-05-13T08:01:17.531Z,16.80
2018-05-13T08:03:45.000Z,17.00
2018-05-13T08:06:12.571Z,17.00
2018-05-13T08:08:39.980Z,17.00
2018-05-13T08:11:07.471Z,17.20
2018-05-13T08:13:34.952Z,17.00
2018-05-13T08:16:02.418Z,17.20
2018-05-13T08:18:30.684Z,17.30
2018-05-13T08:20:58.144Z,17.30
2018-05-13T08:23:25.589Z,17.50
2018-05-13T08:25:53.085Z,17.50
2018-05-13T08:28:21.297Z,17.80
2018-05-13T08:30:48.800Z,17.80
2018-05-13T08:33:16.251Z,17.90
2018-05-13T08:35:43.731Z,18.00
2018-05-13T08:38:11.962Z,18.90
2018-05-13T08:40:39.430Z,18.80
2018-05-13T08:43:06.917Z,19.10
2018-05-13T08:45:35.174Z,18.70
2018-05-13T08:48:02.639Z,18.70
2018-05-13T08:50:30.923Z,18.30
2018-05-13T08:52:59.166Z,18.40
2018-05-13T08:55:27.510Z,18.30
2018-05-13T08:57:54.962Z,18.30
2018-05-13T09:00:22.531Z,18.20
2018-05-13T09:02:50.025Z,18.50
2018-05-13T09:05:17.532Z,18.20
2018-05-13T09:07:44.979Z,18.40
2018-05-13T09:10:13.237Z,18.40
2018-05-13T09:12:41.520Z,18.20
2018-05-13T09:15:09.791Z,18.00
2018-05-13T09:17:37.288Z,18.00
2018-05-13T09:20:04.784Z,17.90
2018-05-13T09:22:32.262Z,17.70
2018-05-13T09:25:00.526Z,17.60
2018-05-13T09:27:27.981Z,17.50
2018-05-13T09:29:55.487Z,17.50
2018-05-13T09:32:22.964Z,17.50
2018-05-13T09:34:50.552Z,17.20
2018-05-13T09:37:18.054Z,17.00
2018-05-13T09:39:45.545Z,16.90
2018-05-13T09:42:13.021Z,16.80
2018-05-13T09:44:40.491Z,16.70
2018-05-13T09:47:07.973Z,16.60
2018-05-13T09:49:36.265Z,16.60
2018-05-13T09:52:03.780Z,16.60
2018-05-13T09:54:31.233Z,16.60
2018-05-13T09:56:58.839Z,16.50
2018-05-13T09:59:27.087Z,16.50
2018-05-13T10:01:54.703Z,16.50
2018-05-13T10:04:22.218Z,16.50
2018-05-13T10:06:50.498Z,16.50
2018-05-13T10:09:18.758Z,16.50
2018-05-13T10:11:46.247Z,16.40
2018-05-13T10:14:13.717Z,16.40
2018-05-13T10:16:41.197Z,16.20
2018-05-13T10:19:08.661Z,16.20
2018-05-13T10:21:36.160Z,16.20
2018-05-13T10:24:04.398Z,16.20
2018-05-13T10:26:31.882Z,16.20
2018-05-13T10:28:59.355Z,16.10
2018-05-13T10:31:27.597Z,16.10
2018-05-13T10:33:55.081Z,16.10
2018-05-13T10:36:23.356Z,16.00
2018-05-13T10:38:51.370Z,16.00
2018-05-13T10:41:18.986Z,16.00
2018-05-13T10:43:47.241Z,16.00
2018-05-13T10:46:14.739Z,16.00
2018-05-13T10:48:42.293Z,15.90
2018-05-13T10:51:09.921Z,15.80
2018-05-13T10:53:37.614Z,15.70
2018-05-13T10:56:06.209Z,15.80
2018-05-13T10:58:33.732Z,15.80
2018-05-13T11:01:01.244Z,15.70
2018-05-13T11:03:28.730Z,15.80
2018-05-13T11:05:56.955Z,15.80
2018-05-13T11:08:24.449Z,15.70
2018-05-13T11:10:51.906Z,15.80
2018-05-13T11:13:19.375Z,15.60
2018-05-13T11:15:46.848Z,15.60
2018-05-13T11:18:14.310Z,15.60
2018-05-13T11:20:41.810Z,15.50
2018-05-13T11:23:09.253Z,15.70
2018-05-13T11:25:37.506Z,15.50
2018-05-13T11:28:04.969Z,15.50
2018-05-13T11:30:33.207Z,15.40
2018-05-13T11:33:00.669Z,15.40
2018-05-13T11:35:28.149Z,15.30
2018-05-13T11:37:55.632Z,15.40
2018-05-13T11:40:23.094Z,15.30
2018-05-13T11:42:50.561Z,15.20
2018-05-13T11:45:18.044Z,15.30
2018-05-13T11:47:45.564Z,15.20
2018-05-13T11:50:13.766Z,15.20
2018-05-13T11:52:41.250Z,15.20
2018-05-13T11:55:08.748Z,15.30
2018-05-13T11:57:36.988Z,15.20
2018-05-13T12:00:04.449Z,15.20
2018-05-13T12:02:32.005Z,15.10
2018-05-13T12:04:59.390Z,15.10
2018-05-13T12:07:27.680Z,14.90
2018-05-13T12:09:55.906Z,15.00
2018-05-13T12:12:23.380Z,14.90
2018-05-13T12:14:50.881Z,15.00
2018-05-13T12:17:18.325Z,15.00
2018-05-13T12:19:45.807Z,15.10
2018-05-13T12:22:13.276Z,15.10
2018-05-13T12:24:40.757Z,15.10
2018-05-13T12:27:08.228Z,15.00
2018-05-13T12:29:35.743Z,15.00
2018-05-13T12:32:03.228Z,15.00
2018-05-13T12:34:30.670Z,15.00
2018-05-13T12:36:58.182Z,15.00
2018-05-13T12:39:26.449Z,14.90
2018-05-13T12:41:53.896Z,14.90
2018-05-13T12:44:21.410Z,14.80
2018-05-13T12:46:48.889Z,15.00
2018-05-13T12:49:16.373Z,14.90
2018-05-13T12:51:43.871Z,14.90
2018-05-13T12:54:11.349Z,14.80
2018-05-13T12:56:38.874Z,14.80
2018-05-13T12:59:06.320Z,14.70
2018-05-13T13:01:34.585Z,14.70
2018-05-13T13:04:02.050Z,14.70
2018-05-13T13:06:30.309Z,14.80
2018-05-13T13:08:57.782Z,14.80
2018-05-13T13:11:26.029Z,14.90
2018-05-13T13:13:53.529Z,14.80
2018-05-13T13:16:21.768Z,14.80
2018-05-13T13:18:49.216Z,14.70
2018-05-13T13:21:16.687Z,14.80
2018-05-13T13:23:44.287Z,14.70
2018-05-13T13:26:12.504Z,14.70
2018-05-13T13:28:39.966Z,14.70
2018-05-13T13:31:07.453Z,14.80
2018-05-13T13:33:35.699Z,15.00
2018-05-13T13:36:03.182Z,15.00
2018-05-13T13:38:31.401Z,14.80
2018-05-13T13:40:58.869Z,14.80
2018-05-13T13:43:26.352Z,14.80
2018-05-13T13:45:53.832Z,14.90
2018-05-13T13:48:22.105Z,14.80
2018-05-13T13:50:50.353Z,14.80
2018-05-13T13:53:17.845Z,14.80
2018-05-13T13:55:46.104Z,14.90
2018-05-13T13:58:13.595Z,14.90
2018-05-13T14:00:41.828Z,15.00
2018-05-13T14:03:09.415Z,15.00
2018-05-13T14:05:37.658Z,15.00
2018-05-13T14:08:05.156Z,14.90
2018-05-13T14:10:33.398Z,14.80
2018-05-13T14:13:00.900Z,14.80
2018-05-13T14:15:29.168Z,14.70
2018-05-13T14:17:57.416Z,14.70
2018-05-13T14:20:24.987Z,14.70
2018-05-13T14:22:52.392Z,14.60
2018-05-13T14:25:19.889Z,14.70
2018-05-13T14:27:47.380Z,14.80
2018-05-13T14:30:15.652Z,14.70
2018-05-13T14:32:43.902Z,14.60
2018-05-13T14:35:11.395Z,14.60
2018-05-13T14:37:38.873Z,14.70
2018-05-13T14:40:06.353Z,14.60
2018-05-13T14:42:33.824Z,14.60
2018-05-13T14:45:01.352Z,14.60
2018-05-13T14:47:28.848Z,14.70
2018-05-13T14:49:56.320Z,14.70
2018-05-13T14:52:24.544Z,14.80
2018-05-13T14:54:52.057Z,14.80
2018-05-13T14:57:19.521Z,14.80
2018-05-13T14:59:47.761Z,14.70
2018-05-13T15:02:15.246Z,14.70
2018-05-13T15:04:43.480Z,14.80
2018-05-13T15:07:11.009Z,14.70
2018-05-13T15:09:38.456Z,14.70
2018-05-13T15:12:05.936Z,14.50
2018-05-13T15:14:33.400Z,14.50
2018-05-13T15:17:00.876Z,14.50
2018-05-13T15:19:28.351Z,14.50
2018-05-13T15:21:55.842Z,14.40
2018-05-13T15:24:23.325Z,14.40
2018-05-13T15:26:50.838Z,14.40
2018-05-13T15:29:19.074Z,14.40
2018-05-13T15:31:46.581Z,14.40
2018-05-13T15:34:14.834Z,14.40
2018-05-13T15:36:42.305Z,14.50
2018-05-13T15:39:09.773Z,14.40
2018-05-13T15:41:37.249Z,14.50
2018-05-13T15:44:04.749Z,14.50
2018-05-13T15:46:32.250Z,14.60
2018-05-13T15:48:59.923Z,14.60
2018-05-13T15:51:27.408Z,14.50
2018-05-13T15:53:54.924Z,14.40
2018-05-13T15:56:23.149Z,14.50
2018-05-13T15:58:50.650Z,14.50
2018-05-13T16:01:18.185Z,14.60
2018-05-13T16:03:45.694Z,14.50
2018-05-13T16:06:13.168Z,14.50
2018-05-13T16:08:40.656Z,14.60
2018-05-13T16:11:08.153Z,14.70
2018-05-13T16:13:36.365Z,14.70
2018-05-13T16:16:03.897Z,14.70
2018-05-13T16:18:31.375Z,14.50
2018-05-13T16:20:59.653Z,14.40
2018-05-13T16:23:27.188Z,14.40
2018-05-13T16:25:54.751Z,14.40
2018-05-13T16:28:22.322Z,14.40
2018-05-13T16:30:49.852Z,14.40
2018-05-13T16:33:18.286Z,14.30
2018-05-13T16:35:46.516Z,14.20
2018-05-13T16:38:14.800Z,14.20
2018-05-13T16:40:42.354Z,14.20
2018-05-13T16:43:10.589Z,14.10
2018-05-13T16:45:38.122Z,14.10
2018-05-13T16:48:05.629Z,14.10
2018-05-13T16:50:33.893Z,14.10
2018-05-13T16:53:01.454Z,14.10
2018-05-13T16:55:29.163Z,14.10
2018-05-13T16:57:56.695Z,14.10
2018-05-13T17:00:24.934Z,14.00
2018-05-13T17:02:52.401Z,14.00
2018-05-13T17:05:19.939Z,14.00
2018-05-13T17:07:47.470Z,13.90
2018-05-13T17:10:14.972Z,13.90
2018-05-13T17:12:42.457Z,13.90
2018-05-13T17:15:10.876Z,13.90
2018-05-13T17:17:38.625Z,13.90
2018-05-13T17:20:06.137Z,13.90
2018-05-13T17:22:33.613Z,13.90
2018-05-13T17:25:01.963Z,13.90
2018-05-13T17:27:30.022Z,13.90
2018-05-13T17:29:57.638Z,13.90
2018-05-13T17:32:25.146Z,13.80
2018-05-13T17:34:52.627Z,13.80
2018-05-13T17:37:20.435Z,13.80
2018-05-13T17:39:48.724Z,13.80
2018-05-13T17:42:16.222Z,13.80
2018-05-13T17:44:43.699Z,13.80
2018-05-13T17:47:11.959Z,13.90
2018-05-13T17:49:39.464Z,13.90
2018-05-13T17:52:07.765Z,13.80
2018-05-13T17:54:35.262Z,13.80
2018-05-13T17:57:03.562Z,13.90
2018-05-13T17:59:31.892Z,13.80
2018-05-13T18:01:59.456Z,13.70
2018-05-13T18:04:26.911Z,13.60
2018-05-13T18:06:54.442Z,13.60
2018-05-13T18:09:22.015Z,13.70
2018-05-13T18:11:49.477Z,13.60
2018-05-13T18:14:16.944Z,13.60
2018-05-13T18:16:44.501Z,13.70
2018-05-13T18:19:11.990Z,13.60
2018-05-13T18:21:39.551Z,13.60
2018-05-13T18:24:07.843Z,13.60
2018-05-13T18:26:35.355Z,13.50
2018-05-13T18:29:03.110Z,13.60
2018-05-13T18:31:30.625Z,13.60
2018-05-13T18:33:58.162Z,13.60
2018-05-13T18:36:26.473Z,13.90
2018-05-13T18:38:54.167Z,13.90
2018-05-13T18:41:21.551Z,13.90
2018-05-13T18:43:49.040Z,13.70
2018-05-13T18:46:16.537Z,13.60
2018-05-13T18:48:44.038Z,13.50
2018-05-13T18:51:12.263Z,13.50
2018-05-13T18:53:39.818Z,13.60
2018-05-13T18:56:07.459Z,13.60
2018-05-13T18:58:34.997Z,13.60
2018-05-13T19:01:03.223Z,13.50
2018-05-13T19:03:31.158Z,13.50
2018-05-13T19:05:58.621Z,13.40
2018-05-13T19:08:26.089Z,13.50
2018-05-13T19:10:53.542Z,13.60
2018-05-13T19:13:21.118Z,13.50
2018-05-13T19:15:48.656Z,13.50
2018-05-13T19:18:16.161Z,13.40
2018-05-13T19:20:43.646Z,13.40
2018-05-13T19:23:11.985Z,13.30
2018-05-13T19:25:39.696Z,13.30
2018-05-13T19:28:07.937Z,13.20
2018-05-13T19:30:35.418Z,13.20
2018-05-13T19:33:03.634Z,13.10
2018-05-13T19:35:31.529Z,13.20
2018-05-13T19:37:59.130Z,13.20
2018-05-13T19:40:27.365Z,13.10
2018-05-13T19:42:54.861Z,13.10
2018-05-13T19:45:23.172Z,13.20
2018-05-13T19:47:50.871Z,13.10
2018-05-13T19:50:19.489Z,13.10
2018-05-13T19:52:47.364Z,13.20
2018-05-13T19:55:14.869Z,13.10
2018-05-13T19:57:42.701Z,13.10
2018-05-13T20:00:10.240Z,13.10
2018-05-13T20:02:38.532Z,13.00
2018-05-13T20:05:05.950Z,13.00
2018-05-13T20:07:34.201Z,12.90
2018-05-13T20:10:01.764Z,12.90
2018-05-13T20:12:29.250Z,12.90
2018-05-13T20:14:57.504Z,12.80
2018-05-13T20:17:24.977Z,12.80
2018-05-13T20:19:52.496Z,12.80
2018-05-13T20:22:19.957Z,12.90
2018-05-13T20:24:47.436Z,12.90
2018-05-13T20:27:14.875Z,12.90
2018-05-13T20:29:42.387Z,12.90
2018-05-13T20:32:09.887Z,12.90
2018-05-13T20:34:37.352Z,12.90
2018-05-13T20:37:04.841Z,12.80
2018-05-13T20:39:33.080Z,12.80
2018-05-13T20:42:00.569Z,12.80
2018-05-13T20:44:28.030Z,12.80
2018-05-13T20:46:55.506Z,12.70
2018-05-13T20:49:23.757Z,12.60
2018-05-13T20:51:51.233Z,12.60
2018-05-13T20:54:19.462Z,12.60
2018-05-13T20:56:46.953Z,12.60
2018-05-13T20:59:14.440Z,12.70
2018-05-13T21:01:41.921Z,12.70
2018-05-13T21:04:10.173Z,12.80
2018-05-13T21:06:37.628Z,12.80
2018-05-13T21:09:05.869Z,12.90
2018-05-13T21:11:33.370Z,12.90
2018-05-13T21:14:00.826Z,12.90
2018-05-13T21:16:28.288Z,12.80
2018-05-13T21:18:55.801Z,12.80
2018-05-13T21:21:23.265Z,12.80
2018-05-13T21:23:50.749Z,12.80
2018-05-13T21:26:18.217Z,12.80
2018-05-13T21:28:45.695Z,12.80
2018-05-13T21:31:13.145Z,12.80
2018-05-13T21:33:40.647Z,12.80
2018-05-13T21:36:08.121Z,12.80
2018-05-13T21:38:36.384Z,12.80
2018-05-13T21:41:03.854Z,12.80
2018-05-13T21:43:32.073Z,12.70
2018-05-13T21:45:59.578Z,12.70
2018-05-13T21:48:27.015Z,12.60
2018-05-13T21:50:54.456Z,12.70
2018-05-13T21:53:21.922Z,12.70
2018-05-13T21:55:49.398Z,12.70
2018-05-13T21:58:16.867Z,12.60
2018-05-13T22:00:44.354Z,12.70
2018-05-13T22:03:11.806Z,12.80
2018-05-13T22:05:39.254Z,12.70
2018-05-13T22:08:06.711Z,12.70
2018-05-13T22:10:34.930Z,12.60
2018-05-13T22:13:02.440Z,12.60
2018-05-13T22:15:30.667Z,12.60
2018-05-13T22:17:58.148Z,12.60
2018-05-13T22:20:25.616Z,12.70
2018-05-13T22:22:53.081Z,12.60
2018-05-13T22:25:21.321Z,12.60
2018-05-13T22:27:48.823Z,12.60
2018-05-13T22:30:17.046Z,12.60
2018-05-13T22:32:44.536Z,12.60
2018-05-13T22:35:11.983Z,12.60
2018-05-13T22:37:39.453Z,12.60
2018-05-13T22:40:06.947Z,12.70
2018-05-13T22:42:34.415Z,12.70
2018-05-13T22:45:01.939Z,12.60
2018-05-13T22:47:29.366Z,12.60
2018-05-13T22:49:56.832Z,12.60
2018-05-13T22:52:24.304Z,12.60
2018-05-13T22:54:51.796Z,12.60
2018-05-13T22:57:19.234Z,12.60
2018-05-13T22:59:47.474Z,12.60
2018-05-13T23:02:14.933Z,12.50
2018-05-13T23:04:42.425Z,12.60
2018-05-13T23:07:09.848Z,12.50
2018-05-13T23:09:37.371Z,12.50
2018-05-13T23:12:04.828Z,12.60
2018-05-13T23:14:32.292Z,12.50
2018-05-13T23:16:59.757Z,12.50
2018-05-13T23:19:27.216Z,12.50
2018-05-13T23:21:54.695Z,12.50
2018-05-13T23:24:22.152Z,12.50
2018-05-13T23:26:49.628Z,12.40
2018-05-13T23:29:17.073Z,12.40
2018-05-13T23:31:44.533Z,12.40
2018-05-13T23:34:12.001Z,12.40
2018-05-13T23:36:39.476Z,12.40
2018-05-13T23:39:06.941Z,12.40
2018-05-13T23:41:34.417Z,12.30
2018-05-13T23:44:01.871Z,12.40
2018-05-13T23:46:29.342Z,12.40
2018-05-13T23:48:56.820Z,12.40
2018-05-13T23:51:24.279Z,12.40
2018-05-13T23:53:51.771Z,12.40
2018-05-13T23:56:19.233Z,12.40
2018-05-13T23:58:46.687Z,12.30
